Time;durP1;ratioP1;P1;durP2;ratioP2;P2;SDS_P1;SDS_P2;PMS_P1;PMS_P2;Temp;Humidity;BMP_temperature;BMP_pressure;BME280_temperature;BME280_humidity;BME280_pressure;Samples;Min_cycle;Max_cycle;Signal;HPM_P1;HPM_P2
2022/11/06 00:02:26;;;;;;;13.93;3.55;;;;;;;0.71;47.31;100411.16;4837161;28;20080;-64
2022/11/06 00:08:44;;;;;;;16.48;3.90;;;;;;;0.47;45.19;100400.22;4867285;28;21631;-64
2022/11/06 00:11:37;;;;;;;16.85;4.25;;;;;;;0.39;46.11;100406.03;4894272;28;20045;-63
2022/11/06 00:14:30;;;;;;;26.40;4.50;;;;;;;0.64;46.68;100404.09;4877402;28;20076;-62
2022/11/06 00:17:13;;;;;;;25.80;4.43;;;;;;;0.81;47.68;100407.13;4837170;28;20052;-63
2022/11/06 00:20:01;;;;;;;30.17;8.73;;;;;;;1.03;48.01;100403.38;4862876;28;20220;-62
2022/11/06 00:22:47;;;;;;;8.27;2.05;;;;;;;1.26;48.19;100420.22;4843364;28;20042;-63
2022/11/06 00:25:24;;;;;;;8.00;2.00;;;;;;;1.44;48.04;100413.78;4892426;28;20469;-62
2022/11/06 00:28:21;;;;;;;3.58;1.80;;;;;;;1.56;45.10;100405.47;4876166;28;20052;-64
2022/11/06 00:31:05;;;;;;;38.25;5.95;;;;;;;1.45;45.99;100407.81;4823207;28;20093;-63
2022/11/06 00:36:51;;;;;;;3.80;1.77;;;;;;;1.66;47.74;100412.56;4890034;28;20053;-63
2022/11/06 00:39:31;;;;;;;22.70;5.28;;;;;;;1.54;44.61;100392.53;4912887;28;20119;-64
2022/11/06 00:42:07;;;;;;;16.88;4.50;;;;;;;1.59;45.91;100416.69;4882213;28;20049;-64
2022/11/06 00:44:50;;;;;;;5.47;1.80;;;;;;;1.73;45.63;100415.28;4910827;28;20076;-64
2022/11/06 00:47:33;;;;;;;2.75;1.58;;;;;;;1.91;45.02;100424.25;4932418;28;20041;-65
2022/11/06 00:50:25;;;;;;;;;;;;;;;;;;;;;
2022/11/06 00:53:20;;;;;;;9.40;3.00;;;;;;;1.91;45.06;100429.41;4876875;28;21082;-64
2022/11/06 00:56:08;;;;;;;3.88;1.73;;;;;;;2.08;44.31;100422.91;4893727;28;20055;-65
2022/11/06 00:58:41;;;;;;;4.95;1.90;;;;;;;2.04;45.46;100421.09;4938253;28;20374;-64
2022/11/06 01:01:18;;;;;;;4.60;2.28;;;;;;;2.08;45.16;100420.31;4903733;28;20411;-64
2022/11/06 01:04:13;;;;;;;6.25;1.98;;;;;;;2.20;45.29;100419.72;4895939;28;20048;-66
2022/11/06 01:07:24;;;;;;;5.95;2.40;;;;;;;2.01;44.75;100426.19;4884615;28;20071;-65
2022/11/06 01:10:07;;;;;;;7.75;2.53;;;;;;;1.82;44.58;100424.06;4901145;28;20045;-65
2022/11/06 01:12:51;;;;;;;4.32;1.65;;;;;;;1.82;45.55;100418.91;4904572;28;20049;-65
2022/11/06 01:15:31;;;;;;;7.95;2.60;;;;;;;1.90;46.24;100430.25;4913636;28;20045;-64
2022/11/06 01:18:21;;;;;;;7.57;2.28;;;;;;;1.91;44.31;100419.97;4856188;28;20049;-65
2022/11/06 01:21:08;;;;;;;6.35;2.85;;;;;;;1.84;46.24;100417.22;4877543;28;20065;-63
2022/11/06 01:27:21;;;;;;;13.82;4.18;;;;;;;1.64;42.84;100425.38;4884030;28;20068;-66
2022/11/06 01:30:26;;;;;;;10.07;2.72;;;;;;;1.44;44.33;100439.53;4889061;28;20049;-63
2022/11/06 01:33:10;;;;;;;15.43;5.05;;;;;;;1.62;44.85;100427.09;4867659;28;20084;-64
2022/11/06 01:35:55;;;;;;;2.55;1.67;;;;;;;1.81;45.42;100432.63;4882316;28;20049;-64
2022/11/06 01:38:44;;;;;;;6.40;2.20;;;;;;;2.07;46.81;100444.38;4903328;28;20049;-63
2022/11/06 01:41:30;;;;;;;3.72;1.85;;;;;;;2.11;44.88;100446.16;4893507;28;20280;-63
2022/11/06 01:44:44;;;;;;;3.72;1.20;;;;;;;2.03;43.45;100439.97;4864015;28;20045;-64
2022/11/06 01:47:37;;;;;;;1.88;1.33;;;;;;;2.04;41.67;100433.97;4873278;28;20065;-64
2022/11/06 01:50:31;;;;;;;3.83;1.65;;;;;;;1.85;41.62;100431.88;4856389;28;20360;-65
2022/11/06 01:53:08;;;;;;;3.10;1.63;;;;;;;1.66;42.22;100423.72;4894760;28;20049;-65
2022/11/06 01:55:58;;;;;;;4.72;1.77;;;;;;;1.68;45.03;100406.59;4906305;28;20452;-64
2022/11/06 01:58:44;;;;;;;2.85;1.90;;;;;;;2.24;44.84;100426.66;4883286;28;20323;-65
2022/11/06 02:01:24;;;;;;;7.32;2.08;;;;;;;2.46;45.21;100435.69;4905680;28;20124;-65
2022/11/06 02:04:24;;;;;;;2.47;1.50;;;;;;;2.43;43.45;100430.47;4830606;28;20060;-65
2022/11/06 02:07:06;;;;;;;6.70;2.85;;;;;;;2.63;45.00;100433.44;4894827;28;20976;-63
2022/11/06 02:09:48;;;;;;;10.85;3.92;;;;;;;2.82;44.02;100437.19;4895076;28;20044;-65
2022/11/06 02:13:00;;;;;;;14.13;4.00;;;;;;;3.02;45.86;100416.88;4898040;28;20542;-63
2022/11/06 02:15:47;;;;;;;9.80;1.92;;;;;;;3.13;44.18;100430.84;4887938;28;20337;-64
2022/11/06 02:18:50;;;;;;;8.98;2.97;;;;;;;3.20;44.18;100424.09;4906750;28;20044;-65
2022/11/06 02:22:09;;;;;;;16.50;3.97;;;;;;;3.08;42.75;100426.47;4889548;28;20049;-65
2022/11/06 02:25:05;;;;;;;4.82;2.00;;;;;;;3.14;44.91;100426.56;4888449;28;20366;-64
2022/11/06 02:28:12;;;;;;;2.97;1.40;;;;;;;3.23;44.91;100431.88;4912398;28;20112;-64
2022/11/06 02:30:59;;;;;;;2.10;1.30;;;;;;;3.36;44.98;100433.81;4933179;28;20079;-64
2022/11/06 02:33:46;;;;;;;5.07;2.00;;;;;;;3.41;44.81;100434.75;4909828;28;20326;-65
2022/11/06 02:36:26;;;;;;;9.10;2.88;;;;;;;3.28;43.84;100430.25;4886874;28;20125;-65
2022/11/06 02:39:10;;;;;;;8.73;3.30;;;;;;;3.09;44.51;100425.63;4895026;28;20059;-63
2022/11/06 02:41:52;;;;;;;6.03;1.80;;;;;;;3.15;44.10;100433.47;4910621;28;20055;-64
2022/11/06 02:44:53;;;;;;;3.63;1.77;;;;;;;3.18;44.90;100438.69;4890717;28;20053;-64
2022/11/06 02:47:44;;;;;;;2.35;1.42;;;;;;;3.09;43.56;100431.63;4882804;28;20096;-64
2022/11/06 02:50:43;;;;;;;3.72;1.65;;;;;;;3.07;44.16;100437.63;4912758;28;20128;-63
2022/11/06 02:54:01;;;;;;;2.95;1.70;;;;;;;2.92;43.66;100431.38;4888722;28;20045;-64
2022/11/06 03:00:02;;;;;;;2.65;1.50;;;;;;;2.74;43.77;100441.34;4892050;28;19988;-63
2022/11/06 03:02:47;;;;;;;5.00;1.90;;;;;;;2.59;43.95;100432.47;4902687;28;20045;-63
2022/11/06 03:05:31;;;;;;;6.10;1.40;;;;;;;2.53;43.52;100447.84;4902113;28;20064;-64
2022/11/06 03:08:14;;;;;;;4.80;1.70;;;;;;;2.52;44.76;100459.03;4911781;28;20127;-64
2022/11/06 03:11:01;;;;;;;4.10;1.58;;;;;;;2.61;45.29;100454.88;4869150;28;20048;-64
2022/11/06 03:13:58;;;;;;;4.63;2.03;;;;;;;2.58;45.66;100456.56;4894322;28;20053;-65
2022/11/06 03:16:44;;;;;;;3.65;2.15;;;;;;;2.48;44.85;100454.63;4904590;28;20058;-64
2022/11/06 03:20:06;;;;;;;2.53;1.60;;;;;;;2.45;45.71;100457.16;4856344;28;20052;-65
2022/11/06 03:22:53;;;;;;;7.10;2.40;;;;;;;2.34;44.08;100445.75;4873413;28;20049;-64
2022/11/06 03:25:58;;;;;;;6.32;2.15;;;;;;;2.20;43.31;100458.38;4891436;28;20045;-63
2022/11/06 03:32:02;;;;;;;17.27;4.50;;;;;;;2.29;45.54;100449.94;4898686;28;20512;-63
2022/11/06 03:35:05;;;;;;;3.55;2.38;;;;;;;2.32;45.63;100442.28;4880087;28;20053;-62
2022/11/06 03:37:49;;;;;;;3.30;1.60;;;;;;;2.35;45.69;100457.81;4927237;28;20051;-63
2022/11/06 03:40:27;;;;;;;;;;;;;;;2.00;44.16;100460.53;4911412;28;20072;-64
2022/11/06 03:43:21;;;;;;;6.22;1.63;;;;;;;1.72;45.66;100459.03;4873576;28;19921;-64
2022/11/06 03:45:58;;;;;;;;;;;;;;;1.59;46.13;100473.34;4916115;28;20044;-64
2022/11/06 03:48:43;;;;;;;2.08;1.20;;;;;;;1.67;46.70;100477.00;4864667;28;19934;-64
2022/11/06 03:51:42;;;;;;;7.03;1.95;;;;;;;1.72;46.44;100475.41;4883280;28;20050;-64
2022/11/06 03:54:21;;;;;;;5.68;2.00;;;;;;;1.71;46.67;100481.38;4852980;28;20065;-64
2022/11/06 03:57:01;;;;;;;6.63;2.45;;;;;;;1.73;47.23;100481.41;4918837;28;20059;-63
2022/11/06 03:59:55;;;;;;;9.48;4.13;;;;;;;1.78;47.08;100476.38;4888651;28;20165;-64
2022/11/06 04:02:37;;;;;;;10.15;4.30;;;;;;;1.70;47.56;100481.34;4860821;28;20041;-63
2022/11/06 04:05:31;;;;;;;11.85;3.05;;;;;;;1.70;47.78;100443.56;4892511;28;20041;-63
2022/11/06 04:14:35;;;;;;;4.68;1.90;;;;;;;2.06;47.04;100485.56;4891027;28;20266;-65
2022/11/06 04:17:27;;;;;;;3.53;1.98;;;;;;;1.98;47.63;100480.25;4879149;28;20049;-66
2022/11/06 04:20:06;;;;;;;4.43;2.70;;;;;;;1.94;46.08;100496.47;4879378;28;20048;-66
2022/11/06 04:22:56;;;;;;;3.10;1.70;;;;;;;1.89;46.68;100492.94;4891195;28;20050;-65
2022/11/06 04:29:27;;;;;;;3.95;2.05;;;;;;;1.77;47.52;100490.94;4850320;28;20108;-66
2022/11/06 04:32:22;;;;;;;3.60;1.92;;;;;;;1.83;47.29;100503.09;4880618;28;21388;-66
2022/11/06 04:35:25;;;;;;;4.78;2.15;;;;;;;1.87;48.06;100510.94;4900219;28;20048;-66
2022/11/06 04:38:10;;;;;;;5.13;2.28;;;;;;;1.90;48.44;100494.69;4890764;28;20049;-64
2022/11/06 04:40:55;;;;;;;4.55;2.20;;;;;;;1.97;47.72;100506.84;4914141;28;20045;-65
2022/11/06 04:43:43;;;;;;;3.38;2.00;;;;;;;1.82;46.87;100509.06;4895664;28;20041;-66
2022/11/06 04:46:23;;;;;;;7.27;2.37;;;;;;;1.69;47.88;100511.38;4894703;28;20053;-64
2022/11/06 04:49:16;;;;;;;3.95;1.67;;;;;;;1.71;48.94;100494.25;4898878;28;20060;-65
2022/11/06 04:52:15;;;;;;;2.67;2.05;;;;;;;1.85;48.21;100512.63;4860078;28;20057;-65
2022/11/06 04:55:01;;;;;;;5.40;2.47;;;;;;;1.86;48.07;100492.88;4898882;28;20061;-65
2022/11/06 05:00:56;;;;;;;6.20;3.10;;;;;;;2.01;49.19;100503.50;4863395;28;20052;-66
2022/11/06 05:03:42;;;;;;;5.35;2.13;;;;;;;1.90;47.94;100486.94;4882057;28;20323;-67
2022/11/06 05:06:29;;;;;;;2.80;1.65;;;;;;;1.57;48.11;100505.91;4867713;28;20049;-66
2022/11/06 05:09:24;;;;;;;7.07;2.10;;;;;;;1.31;48.76;100507.00;4885291;28;20078;-65
2022/11/06 05:12:15;;;;;;;3.90;2.30;;;;;;;1.41;49.70;100514.13;4912696;28;20056;-65
2022/11/06 05:14:57;;;;;;;10.07;2.30;;;;;;;1.49;50.23;100510.03;4810771;28;20150;-66
2022/11/06 05:18:11;;;;;;;5.93;2.50;;;;;;;1.43;48.99;100507.31;4877114;28;20054;-67
2022/11/06 05:22:56;;;;;;;4.63;1.98;;;;;;;1.05;50.18;100525.25;4862199;28;20102;-64
2022/11/06 05:24:05;;;;;;;9.40;3.22;;;;;;;1.00;49.76;100531.94;4930898;28;20079;-64
2022/11/06 05:26:59;;;;;;;9.95;4.35;;;;;;;1.07;50.52;100528.69;4875213;28;20040;-65
2022/11/06 05:29:51;;;;;;;5.95;2.92;;;;;;;1.18;49.94;100527.28;4860113;28;20102;-65
2022/11/06 05:32:36;;;;;;;5.25;2.00;;;;;;;1.13;48.01;100528.88;4899663;28;20060;-67
2022/11/06 05:35:19;;;;;;;4.85;2.38;;;;;;;1.15;48.79;100540.09;4915336;28;20115;-66
2022/11/06 05:38:08;;;;;;;4.53;2.17;;;;;;;1.19;48.61;100539.31;4847722;28;20042;-66
2022/11/06 05:40:54;;;;;;;3.10;1.92;;;;;;;1.08;48.43;100530.47;4891086;28;20060;-65
2022/11/06 05:43:30;;;;;;;3.03;2.08;;;;;;;1.12;49.79;100547.69;4896896;28;20426;-66
2022/11/06 05:46:07;;;;;;;5.45;2.08;;;;;;;1.10;50.41;100551.06;4902373;28;20124;-66
2022/11/06 05:49:07;;;;;;;3.42;2.05;;;;;;;1.09;50.24;100563.06;4895601;28;20053;-66
2022/11/06 05:52:01;;;;;;;3.22;2.00;;;;;;;1.12;50.47;100552.84;4865324;28;20053;-66
2022/11/06 05:54:48;;;;;;;4.63;1.83;;;;;;;1.00;50.39;100563.72;4878117;28;20045;-66
2022/11/06 05:57:37;;;;;;;9.30;1.73;;;;;;;0.90;50.60;100571.13;4914014;28;20040;-67
2022/11/06 06:00:19;;;;;;;4.00;1.98;;;;;;;0.78;51.33;100571.66;4939492;28;20043;-65
2022/11/06 06:03:11;;;;;;;5.95;2.20;;;;;;;0.84;52.40;100577.84;4911426;28;20561;-64
2022/11/06 06:06:04;;;;;;;3.67;2.03;;;;;;;0.88;50.88;100577.94;4900976;28;20057;-64
2022/11/06 06:09:00;;;;;;;4.38;2.13;;;;;;;0.92;50.54;100584.91;4907879;28;20301;-64
2022/11/06 06:12:19;;;;;;;6.45;2.00;;;;;;;0.89;52.04;100584.81;4884495;28;20041;-65
2022/11/06 06:15:14;;;;;;;6.60;2.22;;;;;;;0.93;52.32;100591.81;4935635;28;20053;-63
2022/11/06 06:18:00;;;;;;;6.68;2.00;;;;;;;0.99;52.79;100586.81;4884468;28;20053;-66
2022/11/06 06:20:48;;;;;;;8.02;2.08;;;;;;;1.06;52.83;100599.03;4884967;28;20213;-66
2022/11/06 06:23:30;;;;;;;4.00;2.47;;;;;;;1.04;52.46;100596.41;4885688;28;20104;-66
2022/11/06 06:26:14;;;;;;;4.13;2.33;;;;;;;0.99;52.04;100599.69;4892885;28;20482;-66
2022/11/06 06:28:58;;;;;;;5.55;2.13;;;;;;;0.79;50.95;100583.69;4878677;28;20684;-66
2022/11/06 06:31:49;;;;;;;4.82;2.05;;;;;;;0.58;48.71;100604.53;4862589;28;20333;-65
2022/11/06 06:34:28;;;;;;;3.20;1.67;;;;;;;0.52;49.82;100604.34;4914653;28;20052;-65
2022/11/06 06:40:22;;;;;;;3.10;1.60;;;;;;;0.49;50.31;100588.81;4879769;28;20054;-66
2022/11/06 06:43:11;;;;;;;3.10;1.65;;;;;;;0.55;51.06;100604.41;4884542;28;20095;-65
2022/11/06 06:45:55;;;;;;;5.85;1.48;;;;;;;0.57;50.69;100613.06;4915216;28;20071;-65
2022/11/06 06:48:39;;;;;;;4.28;1.75;;;;;;;0.58;50.41;100601.97;4872589;28;20063;-65
2022/11/06 06:51:31;;;;;;;4.65;2.80;;;;;;;-0.10;49.91;100502.28;4910301;28;20233;-65
2022/11/06 06:54:13;;;;;;;2.78;1.33;;;;;;;0.44;49.56;100611.81;4884506;28;20064;-65
2022/11/06 06:56:55;;;;;;;5.60;1.83;;;;;;;0.39;50.22;100611.66;4903152;28;20064;-66
2022/11/06 06:59:47;;;;;;;5.72;1.83;;;;;;;0.30;48.89;100614.00;4910336;28;20658;-66
2022/11/06 07:05:26;;;;;;;4.60;2.15;;;;;;;0.21;50.45;100629.09;4918634;28;20080;-65
2022/11/06 07:08:03;;;;;;;4.60;1.70;;;;;;;0.15;49.12;100623.75;4908113;28;20205;-65
2022/11/06 07:10:51;;;;;;;2.90;1.30;;;;;;;0.03;49.46;100619.13;4903626;28;20072;-67
2022/11/06 07:13:33;;;;;;;8.20;1.63;;;;;;;-0.03;50.14;100630.06;4901405;28;20053;-66
2022/11/06 07:16:17;;;;;;;2.10;1.42;;;;;;;-0.13;50.40;100619.44;4902588;28;20046;-65
2022/11/06 07:22:22;;;;;;;6.43;1.73;;;;;;;-0.21;50.41;100629.47;4809113;28;20074;-65
2022/11/06 07:28:15;;;;;;;9.48;2.85;;;;;;;-0.26;51.95;100620.75;4825019;28;20130;-65
2022/11/06 07:30:58;;;;;;;12.07;3.50;;;;;;;-0.23;52.16;100631.97;4842824;28;20339;-66
2022/11/06 07:33:44;;;;;;;5.35;2.60;;;;;;;-0.23;52.19;100628.53;4819326;28;20059;-66
2022/11/06 07:36:33;;;;;;;8.50;3.13;;;;;;;-0.23;53.44;100636.25;4819803;28;20178;-66
2022/11/06 07:39:27;;;;;;;4.63;1.73;;;;;;;-0.30;51.75;100642.00;4814024;28;20074;-65
2022/11/06 07:42:11;;;;;;;4.57;2.08;;;;;;;-0.23;51.59;100649.09;4796523;28;20543;-65
2022/11/06 07:44:53;;;;;;;3.88;1.80;;;;;;;-0.30;51.46;100655.72;4811411;28;20129;-66
2022/11/06 07:47:43;;;;;;;2.55;1.40;;;;;;;-0.35;50.66;100651.25;4814737;28;20058;-65
2022/11/06 07:50:23;;;;;;;2.67;1.70;;;;;;;-0.29;52.99;100657.47;4808513;28;20065;-65
2022/11/06 07:53:09;;;;;;;7.03;4.15;;;;;;;-0.34;52.57;100637.59;4782812;28;20046;-66
2022/11/06 07:55:57;;;;;;;17.15;8.60;;;;;;;-0.31;53.44;100656.53;4820195;28;20039;-66
2022/11/06 07:58:55;;;;;;;18.92;9.30;;;;;;;-0.26;53.59;100667.84;4854057;28;20262;-65
2022/11/06 08:01:36;;;;;;;28.73;11.27;;;;;;;-0.26;53.19;100666.97;4882816;28;20040;-65
2022/11/06 08:04:23;;;;;;;38.20;18.00;;;;;;;-0.33;53.88;100677.84;4915068;28;20120;-65
2022/11/06 08:07:03;;;;;;;29.20;13.30;;;;;;;-0.43;53.87;100680.09;4880593;28;20055;-65
2022/11/06 08:09:48;;;;;;;69.43;20.77;;;;;;;-0.47;54.00;100678.25;4894656;28;20046;-65
2022/11/06 08:15:49;;;;;;;;;;;;;;;;;;;;;
2022/11/06 08:18:32;;;;;;;13.15;5.90;;;;;;;-0.63;55.15;100670.81;4928657;28;20540;-66
2022/11/06 08:24:25;;;;;;;281.88;90.85;;;;;;;-0.67;55.15;100692.97;4881223;28;20085;-66
2022/11/06 08:30:13;;;;;;;278.65;100.40;;;;;;;-0.85;56.67;100683.72;4888303;28;20048;-66
2022/11/06 08:33:14;;;;;;;106.63;39.57;;;;;;;-1.09;56.55;100684.56;4932862;28;20110;-66
2022/11/06 08:36:08;;;;;;;153.57;57.05;;;;;;;-1.09;56.77;100703.38;4908934;28;20283;-66
2022/11/06 08:38:54;;;;;;;137.32;50.53;;;;;;;-1.15;57.78;100705.72;4904097;28;20353;-68
2022/11/06 08:42:05;;;;;;;98.15;35.45;;;;;;;-1.20;57.46;100706.34;4910424;28;20122;-66
2022/11/06 08:44:58;;;;;;;93.28;32.80;;;;;;;-1.22;57.77;100718.22;4875572;28;20034;-68
2022/11/06 08:47:52;;;;;;;44.60;15.95;;;;;;;-1.38;57.87;100711.66;4922870;28;20066;-66
2022/11/06 08:50:36;;;;;;;59.58;21.50;;;;;;;-1.51;57.56;100705.16;4891731;28;20073;-66
2022/11/06 08:53:21;;;;;;;24.60;9.02;;;;;;;-1.53;57.96;100712.78;4862854;28;20070;-69
2022/11/06 08:56:10;;;;;;;22.85;8.43;;;;;;;-1.48;57.37;100712.97;4890945;28;20059;-66
2022/11/06 08:58:55;;;;;;;15.73;6.80;;;;;;;-1.53;58.19;100711.91;4900224;28;20051;-64
2022/11/06 09:01:35;;;;;;;13.57;5.50;;;;;;;-1.51;60.11;100715.44;4897858;28;20564;-66
2022/11/06 09:04:37;;;;;;;6.20;2.88;;;;;;;-1.44;60.39;100703.72;4884926;28;20381;-66
2022/11/06 09:07:22;;;;;;;7.07;3.17;;;;;;;-1.42;59.73;100710.66;4865971;28;20057;-66
2022/11/06 09:10:14;;;;;;;10.43;4.38;;;;;;;-1.45;61.27;100710.53;4878679;28;20052;-65
2022/11/06 09:12:46;;;;;;;6.32;2.55;;;;;;;-1.46;61.06;100708.78;4898330;28;21463;-65
2022/11/06 09:15:49;;;;;;;13.20;5.28;;;;;;;-1.49;61.38;100713.81;4908561;28;20055;-65
2022/11/06 09:18:30;;;;;;;9.13;3.95;;;;;;;-1.49;61.39;100713.81;4898005;28;20057;-66
2022/11/06 09:21:14;;;;;;;15.43;5.78;;;;;;;-1.65;61.18;100683.25;4883857;28;20054;-66
2022/11/06 09:24:01;;;;;;;8.43;3.55;;;;;;;-2.26;61.72;100592.91;4898921;28;20046;-65
2022/11/06 09:26:55;;;;;;;6.57;2.78;;;;;;;-1.43;59.62;100714.03;4898665;28;20053;-65
2022/11/06 09:29:42;;;;;;;5.45;2.42;;;;;;;-1.73;59.30;100671.00;4855008;28;20064;-65
2022/11/06 09:32:27;;;;;;;7.28;3.53;;;;;;;-1.44;59.67;100712.28;4888527;28;20208;-66
2022/11/06 09:35:13;;;;;;;8.35;3.13;;;;;;;-1.40;60.58;100713.28;4891342;28;20041;-66
2022/11/06 09:38:10;;;;;;;13.57;5.28;;;;;;;-1.29;59.65;100716.28;4915602;28;21056;-65
2022/11/06 09:41:02;;;;;;;17.83;7.97;;;;;;;-1.16;58.73;100719.34;4892806;28;20049;-64
2022/11/06 09:43:57;;;;;;;20.75;7.80;;;;;;;-1.05;58.69;100709.50;4869326;28;20557;-65
2022/11/06 09:46:52;;;;;;;23.27;6.85;;;;;;;-0.92;59.07;100716.84;4862691;28;20057;-65
2022/11/06 09:49:53;;;;;;;40.10;14.45;;;;;;;-0.84;58.17;100716.25;4883801;28;20044;-65
2022/11/06 09:52:53;;;;;;;42.75;14.68;;;;;;;-0.88;57.35;100711.00;4906255;28;20063;-65
2022/11/06 09:55:42;;;;;;;19.30;8.48;;;;;;;-0.98;56.30;100690.94;4888395;28;20345;-65
2022/11/06 09:58:29;;;;;;;9.15;3.90;;;;;;;-0.80;55.92;100718.09;4892512;28;20077;-65
2022/11/06 10:04:36;;;;;;;5.40;2.60;;;;;;;-0.68;55.71;100708.28;4897900;28;20052;-65
2022/11/06 10:07:36;;;;;;;7.80;2.97;;;;;;;-0.65;55.47;100703.25;4913087;28;20056;-65
2022/11/06 10:10:33;;;;;;;10.95;3.53;;;;;;;-0.65;54.48;100698.13;4886349;28;20608;-65
2022/11/06 10:13:44;;;;;;;13.80;4.28;;;;;;;-0.64;54.90;100705.03;4871876;28;20116;-65
2022/11/06 10:16:44;;;;;;;6.65;1.55;;;;;;;-0.68;54.64;100687.75;4837207;28;20054;-65
2022/11/06 10:22:32;;;;;;;3.53;1.90;;;;;;;-0.64;54.72;100694.75;4762354;28;20050;-66
2022/11/06 10:25:37;;;;;;;6.45;1.80;;;;;;;-0.71;55.08;100682.53;4835197;28;20624;-66
2022/11/06 10:28:35;;;;;;;2.88;1.73;;;;;;;-0.61;55.64;100702.56;4833861;28;20054;-66
2022/11/06 10:31:42;;;;;;;2.58;1.50;;;;;;;-0.51;55.77;100696.94;4808352;28;20058;-65
2022/11/06 10:34:22;;;;;;;5.07;1.88;;;;;;;-0.55;55.98;100704.47;4813483;28;20098;-66
2022/11/06 10:37:39;;;;;;;2.60;1.73;;;;;;;-0.53;55.75;100693.44;4801178;28;20066;-66
2022/11/06 10:40:37;;;;;;;6.00;1.48;;;;;;;-0.60;56.10;100670.97;4804409;28;20061;-67
2022/11/06 10:43:32;;;;;;;3.28;1.30;;;;;;;-0.39;56.34;100696.50;4844874;28;20086;-66
2022/11/06 10:46:25;;;;;;;5.15;2.00;;;;;;;-0.56;56.60;100647.13;4840255;28;20046;-66
2022/11/06 10:49:15;;;;;;;8.93;2.63;;;;;;;-0.26;56.71;100692.66;4805590;28;20070;-67
2022/11/06 10:52:52;;;;;;;10.90;2.60;;;;;;;-0.37;56.51;100684.59;4846048;28;20084;-67
2022/11/06 10:56:11;;;;;;;3.35;2.13;;;;;;;-0.30;56.10;100701.06;4898592;28;20504;-66
2022/11/06 10:58:50;;;;;;;5.68;3.58;;;;;;;-1.26;55.63;100544.59;4878723;28;20073;-66
2022/11/06 11:01:31;;;;;;;5.35;3.50;;;;;;;-0.35;55.53;100708.63;4904115;28;20075;-66
2022/11/06 11:04:24;;;;;;;6.68;2.25;;;;;;;-0.44;55.71;100688.63;4890063;28;20125;-67
2022/11/06 11:07:17;;;;;;;3.30;1.85;;;;;;;-0.30;56.39;100711.31;4863266;28;20087;-66
2022/11/06 11:14:05;;;;;;;5.03;2.83;;;;;;;-0.28;56.78;100709.69;4967649;28;20332;-66
2022/11/06 11:16:52;;;;;;;4.50;2.95;;;;;;;-0.33;56.17;100716.38;4946325;28;20058;-66
2022/11/06 11:23:09;;;;;;;8.40;5.25;;;;;;;-1.15;56.64;100586.88;4956064;28;20059;-67
2022/11/06 11:25:55;;;;;;;4.88;2.20;;;;;;;-0.41;56.03;100717.81;4932903;28;20068;-67
2022/11/06 11:28:42;;;;;;;8.10;4.22;;;;;;;-0.43;56.45;100713.47;4929025;28;20056;-67
2022/11/06 11:31:29;;;;;;;7.45;3.90;;;;;;;-0.43;56.22;100708.31;4939806;28;20130;-67
2022/11/06 11:34:20;;;;;;;8.98;4.63;;;;;;;-0.39;56.86;100711.91;4955137;28;20068;-66
2022/11/06 11:37:07;;;;;;;9.13;4.63;;;;;;;-0.35;56.99;100712.88;4954893;28;20140;-67
2022/11/06 11:39:55;;;;;;;3.97;1.95;;;;;;;-0.84;57.44;100623.91;4917655;28;20094;-66
2022/11/06 11:42:38;;;;;;;2.85;1.50;;;;;;;-0.29;57.45;100713.09;4962995;28;20045;-67
2022/11/06 11:45:29;;;;;;;6.00;1.80;;;;;;;-0.30;57.84;100721.59;4967110;28;20047;-66
2022/11/06 11:48:22;;;;;;;2.97;1.40;;;;;;;-0.32;57.48;100733.53;4964138;28;20069;-67
2022/11/06 11:54:28;;;;;;;3.58;1.20;;;;;;;-0.36;57.73;100736.81;4927889;28;20056;-67
2022/11/06 11:57:32;;;;;;;3.42;1.30;;;;;;;-0.29;57.99;100751.63;4897486;28;20052;-67
2022/11/06 12:00:25;;;;;;;5.68;1.80;;;;;;;-0.22;58.40;100743.31;4941209;28;20052;-66
2022/11/06 12:03:37;;;;;;;3.90;1.48;;;;;;;-0.20;58.09;100739.09;4943766;28;20092;-66
2022/11/06 12:06:31;;;;;;;2.67;1.13;;;;;;;-0.24;57.23;100747.50;4958718;28;20051;-66
2022/11/06 12:09:24;;;;;;;2.67;1.40;;;;;;;-0.26;58.63;100754.28;4893991;28;20052;-66
2022/11/06 12:12:13;;;;;;;3.40;2.20;;;;;;;-0.29;58.35;100749.03;4950540;28;20054;-67
2022/11/06 12:15:22;;;;;;;5.38;1.60;;;;;;;-0.35;57.86;100747.16;4917610;28;20058;-66
2022/11/06 12:18:09;;;;;;;4.25;1.40;;;;;;;-0.48;59.31;100743.25;4930302;28;20082;-66
2022/11/06 12:21:02;;;;;;;5.60;1.65;;;;;;;-0.77;59.13;100713.97;4940719;28;20054;-65
2022/11/06 12:23:45;;;;;;;3.55;2.03;;;;;;;-0.67;57.88;100751.13;4954269;28;20450;-66
2022/11/06 12:26:52;;;;;;;6.95;3.80;;;;;;;-1.12;58.30;100761.38;4903493;28;20052;-66
2022/11/06 12:29:44;;;;;;;4.60;2.50;;;;;;;-1.42;59.38;100761.94;4932093;28;20268;-66
2022/11/06 12:32:41;;;;;;;5.00;2.75;;;;;;;-1.76;60.50;100767.38;4942333;28;20096;-66
2022/11/06 12:35:26;;;;;;;24.88;11.13;;;;;;;-1.99;61.23;100751.06;4937887;28;20502;-65
2022/11/06 12:38:30;;;;;;;16.30;5.03;;;;;;;-1.89;62.58;100776.22;4933412;28;20437;-66
2022/11/06 12:41:34;;;;;;;9.57;3.65;;;;;;;-2.03;62.50;100759.41;4935915;28;20040;-66
2022/11/06 12:44:20;;;;;;;9.80;3.60;;;;;;;-2.05;63.43;100776.38;4929327;28;20055;-65
2022/11/06 12:47:17;;;;;;;11.10;3.33;;;;;;;-2.09;64.61;100777.09;4937161;28;20111;-66
2022/11/06 12:50:16;;;;;;;5.72;2.03;;;;;;;-2.08;64.50;100777.13;4896400;28;20403;-66
2022/11/06 12:53:14;;;;;;;5.93;2.30;;;;;;;-2.15;64.88;100780.22;4924369;28;20032;-66
2022/11/06 12:56:01;;;;;;;2.17;1.60;;;;;;;-2.82;65.11;100675.84;4896169;28;20056;-66
2022/11/06 12:59:08;;;;;;;5.68;1.60;;;;;;;-2.41;65.77;100761.19;4934218;28;20047;-66
2022/11/06 13:01:57;;;;;;;37.53;17.20;;;;;;;-2.52;65.95;100783.75;4907075;28;20600;-64
2022/11/06 13:05:07;;;;;;;36.03;15.68;;;;;;;-2.90;66.96;100726.63;4934398;28;20059;-65
2022/11/06 13:08:15;;;;;;;30.40;13.55;;;;;;;-2.71;67.38;100776.94;4925795;28;20227;-66
2022/11/06 13:14:26;;;;;;;44.78;18.00;;;;;;;-2.77;67.47;100786.91;4927207;28;20074;-65
2022/11/06 13:17:17;;;;;;;30.38;12.30;;;;;;;-2.75;68.14;100787.81;4882776;28;20116;-65
2022/11/06 13:20:23;;;;;;;15.07;6.63;;;;;;;-2.70;68.71;100778.66;4943062;28;20124;-66
2022/11/06 13:23:11;;;;;;;4.32;1.90;;;;;;;-2.63;69.48;100790.94;4913538;28;20674;-65
2022/11/06 13:26:19;;;;;;;5.82;1.55;;;;;;;-2.62;69.23;100787.59;4916669;28;20139;-65
2022/11/06 13:35:49;;;;;;;5.68;2.80;;;;;;;-3.01;68.76;100794.31;4932809;28;20057;-65
2022/11/06 13:41:40;;;;;;;46.33;21.20;;;;;;;-3.29;70.49;100789.56;4916182;28;20041;-65
2022/11/06 13:44:48;;;;;;;42.78;17.88;;;;;;;-3.47;70.63;100764.91;4932891;28;20075;-64
2022/11/06 13:47:24;;;;;;;;;;;;;;;-3.18;70.64;100796.06;4943653;28;20048;-65
2022/11/06 13:50:05;;;;;;;19.60;10.32;;;;;;;-3.18;70.34;100793.50;4918809;28;19950;-66
2022/11/06 13:53:01;;;;;;;14.40;6.25;;;;;;;-3.16;70.39;100799.56;4885663;28;20475;-65
2022/11/06 13:55:57;;;;;;;13.55;6.72;;;;;;;-3.30;70.56;100798.03;4898798;28;20118;-65
2022/11/06 13:59:06;;;;;;;12.63;6.60;;;;;;;-3.57;70.82;100778.03;4890541;28;20056;-64
2022/11/06 14:02:31;;;;;;;6.55;4.22;;;;;;;-3.60;71.54;100816.16;4965886;28;20067;-66
2022/11/06 14:06:04;;;;;;;9.23;5.32;;;;;;;-3.65;71.60;100809.97;4918053;28;20105;-64
2022/11/06 14:12:09;;;;;;;8.00;3.97;;;;;;;-3.81;71.88;100825.34;4924118;28;20056;-65
2022/11/06 14:15:18;;;;;;;9.00;4.20;;;;;;;-3.66;72.12;100818.44;4957917;28;20053;-65
2022/11/06 14:18:56;;;;;;;9.40;3.88;;;;;;;-3.58;71.76;100819.69;4952381;28;20059;-64
2022/11/06 14:22:00;;;;;;;9.15;3.67;;;;;;;-3.66;71.31;100798.00;4924454;28;20131;-65
2022/11/06 14:25:02;;;;;;;8.52;3.90;;;;;;;-3.51;71.16;100831.97;4941028;28;20051;-65
2022/11/06 14:28:05;;;;;;;66.97;27.55;;;;;;;-3.61;70.79;100832.31;4916302;28;20044;-64
2022/11/06 14:34:32;;;;;;;29.05;14.05;;;;;;;-3.71;70.75;100832.66;4928815;28;20133;-64
2022/11/06 14:37:46;;;;;;;35.83;13.65;;;;;;;-3.73;71.12;100841.91;4941997;28;20078;-66
2022/11/06 14:40:40;;;;;;;17.77;6.18;;;;;;;-3.83;71.04;100819.28;4935512;28;20055;-64
2022/11/06 14:43:42;;;;;;;25.13;11.07;;;;;;;-4.36;70.78;100726.44;4935032;28;20066;-65
2022/11/06 14:46:40;;;;;;;28.02;13.70;;;;;;;-3.79;71.12;100836.50;4887700;28;20040;-65
2022/11/06 14:49:42;;;;;;;22.77;10.00;;;;;;;-3.85;71.16;100842.16;4934125;28;20049;-64
2022/11/06 14:52:23;;;;;;;9.57;4.72;;;;;;;-3.96;71.40;100843.31;4876796;28;20075;-66